1P1

Plymouth Municipal Airport

Plymouth, New Hampshire, USA
METAR K1P1 181615Z AUTO 25004KT 10SM CLR M01/M10 A3034 RMK AO2 T10111102
Observed Flight Rules
Nov-18 @ 16:15 UTC (34 minutes ago) Visual Flight Rules
Wind Visibility Clouds
250° at 4 knots 10 miles
  • Clear skies
Temperatures Readings
Current -1°C / 30°F
Dewpoint -10°C / 14°F
Humidity 51%
Altimeter 30.34" Hg
Pressure 1027 hPa
Elevation 154
METAR K1P1 181615Z AUTO 25004KT 10SM CLR M01/M10 A3034 RMK AO2 T10111102
Observed Flight Rules
Nov-18 @ 16:15 UTC
(34 minutes ago)
VFR
Wind Visibility
250° at 4 knots 10 miles
Clouds
  • Clear skies
Temperature Dewpoint
-1°C / 30°F -10°C / 14°F
Humidity Altimeter Pressure
51% 30.34" Hg 1027 hPa